createdAt,value
2017-11-13T00:00:28.325Z,35.20
2017-11-13T00:02:58.859Z,43.40
2017-11-13T00:05:27.726Z,39.57
2017-11-13T00:08:00.057Z,47.33
2017-11-13T00:10:29.080Z,46.63
2017-11-13T00:12:58.008Z,62.37
2017-11-13T00:15:27.666Z,50.50
2017-11-13T00:17:56.935Z,50.87
2017-11-13T00:20:25.855Z,43.03
2017-11-13T00:22:54.761Z,28.13
2017-11-13T00:25:23.706Z,37.00
2017-11-13T00:27:52.571Z,25.80
2017-11-13T00:30:22.433Z,35.37
2017-11-13T00:32:52.592Z,38.73
2017-11-13T00:35:21.535Z,35.33
2017-11-13T00:37:50.402Z,38.00
2017-11-13T00:40:19.370Z,32.93
2017-11-13T00:42:48.725Z,33.47
2017-11-13T00:45:17.771Z,28.90
2017-11-13T00:47:47.831Z,21.07
2017-11-13T00:50:17.089Z,26.57
2017-11-13T00:52:46.700Z,19.73
2017-11-13T00:55:15.870Z,17.70
2017-11-13T00:57:45.156Z,18.43
2017-11-13T01:00:14.877Z,21.20
2017-11-13T01:02:44.505Z,20.50
2017-11-13T01:05:13.419Z,21.40
2017-11-13T01:07:42.289Z,23.03
2017-11-13T01:10:11.487Z,20.80
2017-11-13T01:12:40.416Z,18.20
2017-11-13T01:15:09.990Z,23.67
2017-11-13T01:17:38.908Z,23.70
2017-11-13T01:20:07.745Z,21.30
2017-11-13T01:22:37.302Z,18.47
2017-11-13T01:25:06.132Z,21.50
2017-11-13T01:27:35.172Z,24.40
2017-11-13T01:30:04.464Z,23.87
2017-11-13T01:32:33.613Z,29.87
2017-11-13T01:35:02.727Z,34.13
2017-11-13T01:37:31.967Z,28.63
2017-11-13T01:40:01.052Z,41.17
2017-11-13T01:42:30.017Z,51.43
2017-11-13T01:44:59.181Z,48.37
2017-11-13T01:47:28.304Z,42.23
2017-11-13T01:49:57.147Z,42.67
2017-11-13T01:52:26.040Z,39.53
2017-11-13T01:54:54.824Z,35.13
2017-11-13T01:57:24.528Z,39.40
2017-11-13T01:59:53.632Z,29.00
2017-11-13T02:02:22.567Z,30.17
2017-11-13T02:04:51.431Z,27.93
2017-11-13T02:07:21.176Z,24.33
2017-11-13T02:09:50.191Z,31.20
2017-11-13T02:12:19.073Z,32.00
2017-11-13T02:14:48.694Z,42.13
2017-11-13T02:17:17.631Z,30.83
2017-11-13T02:19:47.615Z,40.87
2017-11-13T02:22:17.122Z,45.83
2017-11-13T02:24:47.112Z,40.93
2017-11-13T02:27:16.071Z,46.00
2017-11-13T02:29:45.383Z,35.13
2017-11-13T02:32:14.420Z,23.70
2017-11-13T02:34:43.462Z,19.20
2017-11-13T02:37:12.861Z,21.10
2017-11-13T02:39:41.888Z,23.17
2017-11-13T02:42:11.426Z,23.10
2017-11-13T02:44:41.431Z,36.17
2017-11-13T02:47:10.541Z,35.10
2017-11-13T02:49:39.492Z,44.33
2017-11-13T02:52:08.933Z,44.23
2017-11-13T02:54:37.984Z,26.80
2017-11-13T02:57:07.096Z,25.70
2017-11-13T02:59:36.126Z,29.77
2017-11-13T03:02:05.072Z,28.07
2017-11-13T03:04:34.215Z,33.73
2017-11-13T03:07:03.246Z,29.07
2017-11-13T03:09:32.428Z,30.27
2017-11-13T03:12:01.366Z,26.47
2017-11-13T03:14:30.966Z,23.43
2017-11-13T03:16:59.791Z,24.93
2017-11-13T03:19:29.383Z,36.57
2017-11-13T03:21:59.113Z,25.53
2017-11-13T03:24:28.005Z,25.60
2017-11-13T03:26:57.035Z,27.87
2017-11-13T03:29:25.841Z,20.30
2017-11-13T03:31:55.598Z,28.17
2017-11-13T03:34:25.712Z,24.13
2017-11-13T03:36:55.366Z,17.80
2017-11-13T03:39:24.253Z,17.60
2017-11-13T03:41:53.073Z,17.37
2017-11-13T03:44:21.901Z,16.90
2017-11-13T03:46:50.721Z,19.40
2017-11-13T03:49:19.578Z,20.63
2017-11-13T03:51:48.556Z,20.43
2017-11-13T03:54:17.751Z,20.07
2017-11-13T03:56:46.580Z,24.90
2017-11-13T03:59:15.691Z,31.27
2017-11-13T04:01:45.653Z,29.90
2017-11-13T04:04:14.487Z,23.30
2017-11-13T04:06:43.340Z,22.17
2017-11-13T04:09:12.291Z,20.53
2017-11-13T04:11:41.341Z,21.90
2017-11-13T04:14:12.527Z,25.63
2017-11-13T04:16:41.456Z,18.30
2017-11-13T04:19:10.644Z,21.77
2017-11-13T04:21:39.632Z,22.07
2017-11-13T04:24:09.222Z,24.03
2017-11-13T04:26:38.135Z,26.57
2017-11-13T04:29:07.292Z,24.83
2017-11-13T04:31:36.118Z,24.47
2017-11-13T04:34:05.062Z,34.87
2017-11-13T04:36:34.653Z,51.87
2017-11-13T04:39:05.220Z,26.83
2017-11-13T04:41:34.572Z,24.63
2017-11-13T04:44:03.579Z,18.27
2017-11-13T04:46:33.433Z,24.80
2017-11-13T04:49:02.624Z,21.70
2017-11-13T04:51:31.559Z,22.60
2017-11-13T04:54:00.367Z,17.57
2017-11-13T04:56:30.352Z,30.37
2017-11-13T04:58:59.188Z,21.90
2017-11-13T05:01:29.008Z,15.33
2017-11-13T05:03:58.108Z,16.50
2017-11-13T05:06:27.331Z,16.07
2017-11-13T05:08:56.909Z,24.13
2017-11-13T05:11:26.376Z,25.67
2017-11-13T05:13:55.328Z,36.50
2017-11-13T05:16:24.684Z,42.83
2017-11-13T05:18:55.264Z,46.80
2017-11-13T05:21:25.380Z,50.37
2017-11-13T05:23:55.751Z,53.50
2017-11-13T05:26:24.781Z,57.73
2017-11-13T05:28:53.692Z,52.30
2017-11-13T05:31:22.560Z,43.70
2017-11-13T05:33:51.672Z,51.73
2017-11-13T05:36:20.460Z,54.03
2017-11-13T05:38:49.297Z,57.13
2017-11-13T05:41:18.708Z,49.00
2017-11-13T05:43:47.589Z,64.23
2017-11-13T05:46:17.479Z,65.07
2017-11-13T05:48:47.568Z,59.30
2017-11-13T05:51:16.591Z,62.60
2017-11-13T05:53:45.404Z,60.20
2017-11-13T05:56:14.956Z,55.73
2017-11-13T05:58:44.058Z,56.17
2017-11-13T06:01:12.948Z,62.83
2017-11-13T06:03:42.119Z,52.27
2017-11-13T06:06:11.782Z,59.50
2017-11-13T06:08:41.380Z,56.40
2017-11-13T06:11:10.588Z,64.70
2017-11-13T06:13:40.123Z,51.17
2017-11-13T06:16:08.935Z,45.00
2017-11-13T06:18:38.740Z,65.10
2017-11-13T06:21:07.668Z,60.17
2017-11-13T06:23:36.543Z,52.30
2017-11-13T06:26:05.379Z,51.90
2017-11-13T06:28:34.542Z,53.03
2017-11-13T06:31:03.541Z,47.30
2017-11-13T06:33:33.524Z,49.50
2017-11-13T06:36:03.389Z,53.50
2017-11-13T06:38:32.826Z,55.67
2017-11-13T06:41:01.769Z,60.40
2017-11-13T06:43:31.410Z,65.27
2017-11-13T06:46:00.239Z,67.47
2017-11-13T06:48:29.830Z,67.10
2017-11-13T06:50:59.390Z,59.27
2017-11-13T06:53:28.251Z,34.87
2017-11-13T06:55:57.908Z,23.73
2017-11-13T06:58:26.765Z,17.33
2017-11-13T07:00:55.651Z,19.63
2017-11-13T07:03:25.568Z,13.97
2017-11-13T07:05:54.523Z,14.77
2017-11-13T07:08:23.688Z,17.17
2017-11-13T07:10:52.833Z,16.80
2017-11-13T07:13:22.482Z,13.60
2017-11-13T07:15:51.577Z,15.77
2017-11-13T07:18:20.432Z,16.27
2017-11-13T07:20:50.056Z,17.17
2017-11-13T07:23:18.851Z,17.73
2017-11-13T07:25:47.936Z,21.33
2017-11-13T07:28:16.768Z,14.50
2017-11-13T07:30:45.697Z,18.90
2017-11-13T07:33:15.632Z,18.53
2017-11-13T07:35:44.523Z,21.77
2017-11-13T07:38:14.625Z,16.63
2017-11-13T07:40:44.351Z,22.63
2017-11-13T07:43:14.368Z,16.37
2017-11-13T07:45:43.261Z,24.83
2017-11-13T07:48:13.159Z,24.13
2017-11-13T07:50:43.088Z,12.37
2017-11-13T07:53:11.975Z,19.23
2017-11-13T07:55:40.841Z,23.70
2017-11-13T07:58:09.764Z,25.00
2017-11-13T08:00:38.596Z,27.27
2017-11-13T08:03:07.441Z,53.77
2017-11-13T08:05:36.864Z,29.20
2017-11-13T08:08:05.762Z,30.33
2017-11-13T08:10:34.592Z,29.90
2017-11-13T08:13:05.817Z,28.40
2017-11-13T08:15:35.580Z,18.90
2017-11-13T08:18:05.290Z,25.97
2017-11-13T08:20:34.148Z,30.93
2017-11-13T08:23:03.399Z,32.83
2017-11-13T08:25:32.631Z,38.40
2017-11-13T08:28:01.802Z,24.67
2017-11-13T08:30:30.856Z,13.20
2017-11-13T08:32:59.836Z,32.60
2017-11-13T08:35:28.776Z,13.80
2017-11-13T08:37:57.602Z,13.73
2017-11-13T08:40:27.196Z,28.00
2017-11-13T08:42:56.805Z,36.70
2017-11-13T08:45:25.676Z,35.43
2017-11-13T08:47:56.117Z,33.83
2017-11-13T08:50:25.704Z,32.77
2017-11-13T08:52:55.413Z,20.87
2017-11-13T08:55:26.177Z,14.40
2017-11-13T08:57:55.000Z,16.97
2017-11-13T09:00:23.817Z,18.13
2017-11-13T09:02:53.465Z,13.10
2017-11-13T09:05:22.629Z,12.60
2017-11-13T09:07:52.812Z,12.73
2017-11-13T09:10:22.541Z,17.90
2017-11-13T09:12:54.622Z,15.17
2017-11-13T09:15:24.240Z,10.87
2017-11-13T09:17:53.826Z,10.37
2017-11-13T09:20:22.771Z,11.60
2017-11-13T09:22:52.739Z,11.87
2017-11-13T09:25:22.312Z,11.47
2017-11-13T09:27:51.180Z,10.60
2017-11-13T09:30:20.023Z,12.70
2017-11-13T09:32:50.056Z,14.37
2017-11-13T09:35:18.867Z,11.67
2017-11-13T09:37:48.022Z,14.93
2017-11-13T09:40:18.012Z,12.70
2017-11-13T09:42:47.628Z,19.50
2017-11-13T09:45:16.799Z,13.40
2017-11-13T09:47:46.053Z,13.07
2017-11-13T09:50:14.949Z,14.17
2017-11-13T09:52:44.447Z,24.97
2017-11-13T09:55:13.488Z,15.57
2017-11-13T09:57:43.135Z,17.30
2017-11-13T10:00:13.810Z,13.27
2017-11-13T10:02:43.290Z,15.63
2017-11-13T10:05:12.187Z,18.50
2017-11-13T10:07:41.835Z,18.33
2017-11-13T10:10:11.099Z,14.67
2017-11-13T10:12:40.116Z,19.43
2017-11-13T10:15:09.784Z,19.20
2017-11-13T10:17:39.126Z,24.60
2017-11-13T10:20:08.796Z,18.90
2017-11-13T10:22:38.775Z,22.70
2017-11-13T10:25:09.004Z,13.33
2017-11-13T10:27:38.711Z,13.17
2017-11-13T10:30:08.536Z,19.03
2017-11-13T10:32:37.785Z,11.47
2017-11-13T10:35:07.063Z,12.83
2017-11-13T10:37:35.914Z,11.60
2017-11-13T10:40:05.551Z,13.30
2017-11-13T10:42:34.436Z,12.37
2017-11-13T10:45:03.460Z,12.83
2017-11-13T10:47:32.812Z,13.50
2017-11-13T10:50:01.880Z,11.80
2017-11-13T10:52:31.488Z,9.97
2017-11-13T10:55:01.475Z,11.13
2017-11-13T10:57:31.342Z,11.53
2017-11-13T11:00:00.701Z,10.80
2017-11-13T11:02:29.817Z,10.30
2017-11-13T11:05:00.076Z,11.10
2017-11-13T11:07:29.077Z,12.37
2017-11-13T11:09:58.095Z,10.20
2017-11-13T11:12:27.468Z,10.27
2017-11-13T11:14:56.561Z,11.53
2017-11-13T11:17:25.612Z,9.30
2017-11-13T11:19:54.601Z,10.70
2017-11-13T11:22:24.302Z,10.80
2017-11-13T11:24:54.011Z,10.03
2017-11-13T11:27:22.984Z,8.67
2017-11-13T11:29:51.965Z,8.60
2017-11-13T11:32:20.936Z,8.90
2017-11-13T11:34:50.045Z,8.77
2017-11-13T11:37:19.801Z,9.93
2017-11-13T11:39:51.132Z,8.07
2017-11-13T11:42:20.090Z,8.40
2017-11-13T11:44:49.385Z,8.77
2017-11-13T11:47:18.633Z,10.10
2017-11-13T11:49:48.909Z,10.63
2017-11-13T11:52:18.015Z,10.57
2017-11-13T11:54:47.117Z,9.23
2017-11-13T11:57:16.191Z,9.73
2017-11-13T11:59:45.219Z,11.57
2017-11-13T12:02:14.481Z,10.47
2017-11-13T12:04:43.581Z,9.77
2017-11-13T12:07:12.656Z,8.93
2017-11-13T12:09:41.703Z,9.00
2017-11-13T12:12:11.324Z,9.73
2017-11-13T12:14:40.211Z,12.50
2017-11-13T12:17:09.097Z,10.80
2017-11-13T12:19:38.750Z,9.80
2017-11-13T12:22:08.479Z,8.67
2017-11-13T12:24:38.162Z,8.53
2017-11-13T12:27:07.849Z,11.20
2017-11-13T12:29:37.800Z,8.80
2017-11-13T12:32:06.674Z,7.83
2017-11-13T12:34:35.582Z,8.77
2017-11-13T12:37:05.598Z,8.00
2017-11-13T12:39:34.607Z,8.70
2017-11-13T12:42:03.484Z,7.00
2017-11-13T12:44:32.780Z,8.93
2017-11-13T12:47:01.761Z,7.83
2017-11-13T12:49:30.596Z,8.93
2017-11-13T12:52:01.619Z,10.07
2017-11-13T12:54:31.594Z,10.10
2017-11-13T12:57:01.210Z,8.67
2017-11-13T12:59:31.486Z,9.50
2017-11-13T13:02:00.606Z,10.10
2017-11-13T13:04:30.414Z,9.30
2017-11-13T13:06:59.306Z,9.50
2017-11-13T13:09:28.639Z,9.27
2017-11-13T13:11:57.553Z,9.60
2017-11-13T13:14:27.272Z,9.20
2017-11-13T13:16:56.163Z,8.77
2017-11-13T13:19:25.088Z,8.90
2017-11-13T13:21:53.899Z,7.60
2017-11-13T13:24:23.052Z,8.40
2017-11-13T13:26:51.966Z,7.77
2017-11-13T13:29:20.824Z,9.63
2017-11-13T13:31:50.625Z,8.17
2017-11-13T13:34:20.308Z,8.67
2017-11-13T13:36:49.281Z,9.03
2017-11-13T13:39:18.620Z,9.97
2017-11-13T13:41:48.208Z,7.80
2017-11-13T13:44:17.431Z,8.93
2017-11-13T13:46:46.604Z,8.63
2017-11-13T13:49:16.189Z,9.70
2017-11-13T13:51:45.101Z,9.07
2017-11-13T13:54:14.962Z,8.60
2017-11-13T13:56:43.944Z,9.10
2017-11-13T13:59:12.813Z,9.17
2017-11-13T14:01:41.843Z,9.57
2017-11-13T14:04:10.715Z,10.20
2017-11-13T14:06:39.566Z,8.50
2017-11-13T14:09:09.717Z,8.70
2017-11-13T14:11:38.686Z,9.13
2017-11-13T14:14:08.691Z,9.27
2017-11-13T14:16:38.297Z,9.17
2017-11-13T14:19:07.899Z,8.60
2017-11-13T14:21:38.046Z,10.50
2017-11-13T14:24:06.896Z,9.47
2017-11-13T14:26:35.826Z,8.93
2017-11-13T14:29:10.589Z,10.07
2017-11-13T14:31:39.691Z,8.80
2017-11-13T14:34:08.747Z,8.70
2017-11-13T14:36:37.955Z,8.23
2017-11-13T14:39:06.956Z,9.30
2017-11-13T14:41:35.809Z,8.10
2017-11-13T14:44:15.361Z,7.50
2017-11-13T14:46:44.247Z,8.07
2017-11-13T14:49:13.430Z,6.57
2017-11-13T14:51:42.409Z,8.27
2017-11-13T14:54:12.019Z,8.57
2017-11-13T14:56:41.644Z,8.73
2017-11-13T14:59:10.536Z,9.20
2017-11-13T15:01:40.152Z,8.87
2017-11-13T15:04:09.704Z,8.23
2017-11-13T15:06:41.103Z,7.93
2017-11-13T15:09:09.953Z,7.93
2017-11-13T15:11:39.552Z,24.23
2017-11-13T15:14:09.759Z,7.57
2017-11-13T15:16:38.607Z,7.37
2017-11-13T15:19:08.671Z,11.23
2017-11-13T15:24:10.631Z,6.90
2017-11-13T15:26:39.936Z,7.80
2017-11-13T15:29:08.796Z,11.40
2017-11-13T15:31:37.658Z,15.77
2017-11-13T15:34:06.896Z,24.10
2017-11-13T15:36:36.416Z,30.03
2017-11-13T15:39:08.865Z,31.27
2017-11-13T15:41:37.719Z,29.27
2017-11-13T15:44:06.583Z,29.03
2017-11-13T15:46:45.940Z,27.97
2017-11-13T15:49:14.854Z,26.10
2017-11-13T15:51:43.788Z,28.73
2017-11-13T15:54:12.942Z,25.90
2017-11-13T15:56:41.784Z,47.03
2017-11-13T15:59:10.608Z,33.67
2017-11-13T16:01:39.844Z,23.77
2017-11-13T16:04:09.011Z,30.33
2017-11-13T16:06:37.864Z,30.67
2017-11-13T16:09:07.513Z,29.23
2017-11-13T16:11:37.053Z,40.50
2017-11-13T16:14:07.280Z,34.23
2017-11-13T16:16:36.278Z,33.73
2017-11-13T16:19:06.284Z,37.53
2017-11-13T16:21:35.168Z,41.70
2017-11-13T16:24:04.155Z,39.00
2017-11-13T16:26:33.822Z,45.77
2017-11-13T16:29:02.873Z,45.13
2017-11-13T16:31:32.833Z,40.93
2017-11-13T16:34:04.561Z,28.25
2017-11-13T16:36:37.980Z,38.43
2017-11-13T16:39:34.163Z,38.47
2017-11-13T16:56:25.805Z,44.83
2017-11-13T16:58:56.037Z,45.17
2017-11-13T17:01:25.752Z,44.33
2017-11-13T17:04:20.015Z,46.13
2017-11-13T17:06:49.340Z,53.38
2017-11-13T17:09:18.753Z,51.83
2017-11-13T17:11:48.302Z,39.25
2017-11-13T17:17:53.714Z,49.72
2017-11-13T17:20:23.349Z,44.53
2017-11-13T17:22:52.584Z,51.80
2017-11-13T17:25:32.248Z,49.10
2017-11-13T17:28:02.125Z,32.50
2017-11-13T17:30:31.373Z,39.95
2017-11-13T17:33:00.689Z,31.80
2017-11-13T17:35:44.997Z,33.10
2017-11-13T17:38:14.323Z,33.55
2017-11-13T17:40:43.822Z,36.15
2017-11-13T17:43:13.505Z,40.60
2017-11-13T17:49:18.886Z,42.93
2017-11-13T17:51:48.413Z,49.23
2017-11-13T17:54:17.727Z,43.22
2017-11-13T17:56:47.116Z,40.73
2017-11-13T17:59:16.438Z,29.37
2017-11-13T18:01:45.978Z,38.00
2017-11-13T18:04:15.326Z,27.50
2017-11-13T18:06:44.940Z,24.73
2017-11-13T18:09:14.440Z,32.63
2017-11-13T18:11:44.949Z,25.30
2017-11-13T18:15:10.798Z,33.00
2017-11-13T18:17:41.810Z,32.43
2017-11-13T18:20:12.209Z,39.57
2017-11-13T18:23:23.343Z,26.77
2017-11-13T18:25:54.072Z,33.97
2017-11-13T18:28:23.969Z,25.93
2017-11-13T18:30:53.837Z,18.40
2017-11-13T18:33:23.253Z,21.90
2017-11-13T18:35:53.605Z,14.97
2017-11-13T18:38:28.568Z,24.73
2017-11-13T18:41:02.032Z,22.53
2017-11-13T18:43:42.381Z,16.83
2017-11-13T18:46:43.698Z,19.97
2017-11-13T18:49:19.703Z,21.93
2017-11-13T18:51:55.158Z,21.87
2017-11-13T18:54:28.593Z,15.30
2017-11-13T18:57:01.888Z,14.30
2017-11-13T19:04:41.288Z,16.13
2017-11-13T19:07:14.087Z,37.97
2017-11-13T19:09:43.486Z,33.00
2017-11-13T19:12:12.957Z,33.03
2017-11-13T19:14:44.353Z,28.97
2017-11-13T19:17:14.662Z,25.70
2017-11-13T19:19:43.892Z,24.57
2017-11-13T19:22:13.004Z,21.90
2017-11-13T19:24:42.028Z,27.73
2017-11-13T19:27:12.467Z,25.23
2017-11-13T19:29:41.512Z,19.73
2017-11-13T19:32:10.519Z,34.53
2017-11-13T19:34:40.279Z,32.03
2017-11-13T19:37:09.276Z,33.80
2017-11-13T19:39:39.051Z,27.53
2017-11-13T19:42:07.968Z,31.20
2017-11-13T19:44:40.628Z,25.97
2017-11-13T19:47:09.585Z,28.20
2017-11-13T19:49:41.333Z,27.00
2017-11-13T19:52:13.428Z,38.83
2017-11-13T19:54:44.712Z,38.37
2017-11-13T19:57:14.363Z,55.73
2017-11-13T19:59:43.962Z,50.20
2017-11-13T20:02:13.235Z,28.23
2017-11-13T20:04:42.433Z,30.87
2017-11-13T20:07:11.316Z,28.93
2017-11-13T20:09:40.884Z,41.23
2017-11-13T20:12:09.712Z,35.60
2017-11-13T20:14:38.573Z,27.47
2017-11-13T20:17:07.408Z,27.20
2017-11-13T20:19:36.248Z,34.27
2017-11-13T20:22:06.534Z,29.10
2017-11-13T20:24:35.362Z,21.93
2017-11-13T20:27:05.391Z,19.37
2017-11-13T20:29:37.512Z,18.63
2017-11-13T20:32:08.412Z,20.43
2017-11-13T20:34:37.341Z,18.93
2017-11-13T20:37:06.224Z,18.33
2017-11-13T20:39:35.801Z,15.23
2017-11-13T20:42:04.691Z,18.10
2017-11-13T20:44:33.540Z,26.67
2017-11-13T20:47:02.451Z,24.37
2017-11-13T20:49:31.819Z,29.20
2017-11-13T20:52:01.417Z,30.40
2017-11-13T20:54:30.643Z,21.17
2017-11-13T20:57:00.352Z,23.10
2017-11-13T20:59:29.243Z,22.70
2017-11-13T21:02:02.199Z,23.27
2017-11-13T21:04:31.374Z,24.37
2017-11-13T21:07:00.236Z,24.50
2017-11-13T21:09:29.226Z,27.23
2017-11-13T21:11:58.103Z,26.63
2017-11-13T21:14:27.696Z,25.40
2017-11-13T21:16:57.291Z,25.27
2017-11-13T21:19:26.181Z,25.80
2017-11-13T21:21:57.424Z,31.87
2017-11-13T21:24:27.243Z,31.80
2017-11-13T21:26:56.829Z,29.33
2017-11-13T21:29:26.045Z,34.57
2017-11-13T21:31:55.617Z,34.97
2017-11-13T21:34:24.456Z,37.50
2017-11-13T21:36:56.324Z,42.97
2017-11-13T21:39:25.155Z,30.87
2017-11-13T21:41:53.976Z,45.63
2017-11-13T21:44:24.527Z,39.90
2017-11-13T21:46:53.715Z,39.87
2017-11-13T21:49:22.596Z,49.77
2017-11-13T21:51:52.232Z,40.90
2017-11-13T21:54:21.079Z,52.30
2017-11-13T21:56:53.150Z,47.67
2017-11-13T21:59:22.704Z,60.10
2017-11-13T22:01:51.569Z,54.37
2017-11-13T22:04:20.364Z,52.80
2017-11-13T22:06:50.568Z,48.40
2017-11-13T22:09:19.376Z,53.17
2017-11-13T22:11:48.227Z,64.00
2017-11-13T22:14:17.811Z,49.17
2017-11-13T22:16:46.643Z,60.60
2017-11-13T22:19:19.084Z,53.57
2017-11-13T22:21:48.300Z,54.10
2017-11-13T22:24:17.128Z,59.20
2017-11-13T22:26:48.994Z,67.87
2017-11-13T22:29:17.848Z,77.20
2017-11-13T22:31:46.680Z,75.63
2017-11-13T22:34:15.559Z,80.83
2017-11-13T22:36:44.367Z,75.57
2017-11-13T22:39:14.120Z,82.87
2017-11-13T22:41:43.263Z,76.80
2017-11-13T22:44:12.149Z,74.43
2017-11-13T22:46:41.015Z,80.67
2017-11-13T22:49:09.867Z,74.07
2017-11-13T22:51:38.820Z,79.67
2017-11-13T22:54:08.079Z,75.00
2017-11-13T22:56:37.071Z,73.77
2017-11-13T22:59:05.928Z,68.10
2017-11-13T23:01:35.511Z,74.10
2017-11-13T23:04:04.391Z,77.60
2017-11-13T23:06:33.330Z,75.17
2017-11-13T23:09:02.344Z,71.73
2017-11-13T23:11:32.555Z,83.87
2017-11-13T23:14:01.527Z,83.23
2017-11-13T23:16:30.340Z,90.97
2017-11-13T23:19:01.447Z,87.33
2017-11-13T23:21:30.267Z,80.77
2017-11-13T23:23:59.109Z,86.60
2017-11-13T23:26:28.893Z,55.87
2017-11-13T23:28:57.700Z,72.60
2017-11-13T23:31:26.520Z,71.70
2017-11-13T23:33:55.396Z,73.17
2017-11-13T23:36:25.497Z,66.13
2017-11-13T23:38:55.148Z,66.63
2017-11-13T23:41:23.981Z,77.97
2017-11-13T23:43:53.216Z,68.83
2017-11-13T23:46:22.276Z,64.87
2017-11-13T23:48:51.116Z,59.77
2017-11-13T23:51:20.232Z,55.27
2017-11-13T23:53:49.036Z,53.17
2017-11-13T23:56:17.974Z,54.87
2017-11-13T23:58:46.970Z,52.97
